Weather at Head Office Delamere Estates Airport

Public forecast

Using degrees Celsius for public forecast. Weather courtesy of forecast.io.

Closest aviation weather report (METAR) to Head Office Delamere Estates Airport

Closest report is Nakuru Airport, 10.4 nm (19.2 km) N.

2024/04/12 16:00 (retrieved 2 hours ago)

HKNK 121600Z 00000KT 9999 SCT020 20/16

Closest aviation forecast (TAF) to Head Office Delamere Estates Airport

Closest forecast is Nairobi Wilson Airport, 63.5 nm (117.6 km) SE.

2024/04/12 12:42 (retrieved 5 hours ago)

TAF HKNW 121100Z 1212/1312 07010KT 9999 BKN025 TEMPO 1216/1220 SHRA FEW021CB SCT022 BKN080 BECMG 1221/1224 VRB02KT -RA SCT018 BKN080 BECMG 1308/1311 07010KT NSW BKN025